sensor_id;sensor_type;location;lat;lon;timestamp;P1;durP1;ratioP1;P2;durP2;ratioP2
40537;SDS011;27925;41.874;12.526;2024-02-16T00:01:32;30.55;;;22.92;;
40537;SDS011;27925;41.874;12.526;2024-02-16T00:03:58;27.88;;;20.95;;
40537;SDS011;27925;41.874;12.526;2024-02-16T00:06:24;32.45;;;22.20;;
40537;SDS011;27925;41.874;12.526;2024-02-16T00:08:49;34.25;;;22.00;;
40537;SDS011;27925;41.874;12.526;2024-02-16T00:11:15;29.98;;;21.52;;
40537;SDS011;27925;41.874;12.526;2024-02-16T00:13:41;32.92;;;21.95;;
40537;SDS011;27925;41.874;12.526;2024-02-16T00:16:06;27.58;;;20.48;;
40537;SDS011;27925;41.874;12.526;2024-02-16T00:18:32;34.70;;;22.20;;
40537;SDS011;27925;41.874;12.526;2024-02-16T00:20:58;36.78;;;23.00;;
40537;SDS011;27925;41.874;12.526;2024-02-16T00:23:24;30.98;;;21.92;;
40537;SDS011;27925;41.874;12.526;2024-02-16T00:25:50;34.72;;;21.13;;
40537;SDS011;27925;41.874;12.526;2024-02-16T00:28:16;29.50;;;21.08;;
40537;SDS011;27925;41.874;12.526;2024-02-16T00:30:42;31.90;;;21.67;;
40537;SDS011;27925;41.874;12.526;2024-02-16T00:33:07;33.67;;;22.48;;
40537;SDS011;27925;41.874;12.526;2024-02-16T00:35:33;31.60;;;22.98;;
40537;SDS011;27925;41.874;12.526;2024-02-16T00:37:59;39.13;;;22.77;;
40537;SDS011;27925;41.874;12.526;2024-02-16T00:40:25;31.65;;;21.88;;
40537;SDS011;27925;41.874;12.526;2024-02-16T00:42:54;37.03;;;22.05;;
40537;SDS011;27925;41.874;12.526;2024-02-16T00:45:20;33.53;;;21.90;;
40537;SDS011;27925;41.874;12.526;2024-02-16T00:47:46;31.20;;;22.13;;
40537;SDS011;27925;41.874;12.526;2024-02-16T00:50:11;30.48;;;20.73;;
40537;SDS011;27925;41.874;12.526;2024-02-16T00:52:37;35.80;;;23.02;;
40537;SDS011;27925;41.874;12.526;2024-02-16T00:55:04;31.63;;;21.77;;
40537;SDS011;27925;41.874;12.526;2024-02-16T00:57:30;31.38;;;21.95;;
40537;SDS011;27925;41.874;12.526;2024-02-16T00:59:56;27.88;;;20.88;;
40537;SDS011;27925;41.874;12.526;2024-02-16T01:02:22;31.60;;;21.52;;
40537;SDS011;27925;41.874;12.526;2024-02-16T01:04:47;31.17;;;20.70;;
40537;SDS011;27925;41.874;12.526;2024-02-16T01:07:15;27.95;;;21.55;;
40537;SDS011;27925;41.874;12.526;2024-02-16T01:09:41;29.73;;;20.73;;
40537;SDS011;27925;41.874;12.526;2024-02-16T01:12:07;27.20;;;20.77;;
40537;SDS011;27925;41.874;12.526;2024-02-16T01:14:33;28.85;;;21.63;;
40537;SDS011;27925;41.874;12.526;2024-02-16T01:16:58;30.42;;;21.70;;
40537;SDS011;27925;41.874;12.526;2024-02-16T01:19:24;33.55;;;21.00;;
40537;SDS011;27925;41.874;12.526;2024-02-16T01:21:50;30.15;;;20.10;;
40537;SDS011;27925;41.874;12.526;2024-02-16T01:24:18;31.52;;;20.27;;
40537;SDS011;27925;41.874;12.526;2024-02-16T01:26:46;29.15;;;20.92;;
40537;SDS011;27925;41.874;12.526;2024-02-16T01:29:11;30.45;;;21.10;;
40537;SDS011;27925;41.874;12.526;2024-02-16T01:31:37;27.73;;;20.60;;
40537;SDS011;27925;41.874;12.526;2024-02-16T01:34:03;28.02;;;19.48;;
40537;SDS011;27925;41.874;12.526;2024-02-16T01:36:29;29.85;;;20.95;;
40537;SDS011;27925;41.874;12.526;2024-02-16T01:38:54;27.05;;;19.50;;
40537;SDS011;27925;41.874;12.526;2024-02-16T01:41:20;27.17;;;19.83;;
40537;SDS011;27925;41.874;12.526;2024-02-16T01:43:46;24.98;;;19.25;;
40537;SDS011;27925;41.874;12.526;2024-02-16T01:46:11;24.73;;;19.38;;
40537;SDS011;27925;41.874;12.526;2024-02-16T01:48:37;26.20;;;18.65;;
40537;SDS011;27925;41.874;12.526;2024-02-16T01:51:06;27.60;;;18.88;;
40537;SDS011;27925;41.874;12.526;2024-02-16T01:53:34;25.55;;;18.40;;
40537;SDS011;27925;41.874;12.526;2024-02-16T01:56:01;26.75;;;19.10;;
40537;SDS011;27925;41.874;12.526;2024-02-16T01:58:28;26.20;;;19.42;;
40537;SDS011;27925;41.874;12.526;2024-02-16T02:00:54;29.05;;;19.80;;
40537;SDS011;27925;41.874;12.526;2024-02-16T02:03:19;25.58;;;18.48;;
40537;SDS011;27925;41.874;12.526;2024-02-16T02:05:45;25.17;;;18.60;;
40537;SDS011;27925;41.874;12.526;2024-02-16T02:08:12;23.98;;;18.30;;
40537;SDS011;27925;41.874;12.526;2024-02-16T02:10:38;27.85;;;17.85;;
40537;SDS011;27925;41.874;12.526;2024-02-16T02:13:04;26.15;;;19.10;;
40537;SDS011;27925;41.874;12.526;2024-02-16T02:15:30;25.35;;;18.60;;
40537;SDS011;27925;41.874;12.526;2024-02-16T02:17:55;24.95;;;18.02;;
40537;SDS011;27925;41.874;12.526;2024-02-16T02:20:24;25.45;;;18.42;;
40537;SDS011;27925;41.874;12.526;2024-02-16T02:22:50;30.95;;;19.75;;
40537;SDS011;27925;41.874;12.526;2024-02-16T02:25:15;24.58;;;18.35;;
40537;SDS011;27925;41.874;12.526;2024-02-16T02:27:41;24.85;;;18.63;;
40537;SDS011;27925;41.874;12.526;2024-02-16T02:30:07;23.48;;;17.88;;
40537;SDS011;27925;41.874;12.526;2024-02-16T02:32:34;25.13;;;18.35;;
40537;SDS011;27925;41.874;12.526;2024-02-16T02:35:00;25.17;;;18.13;;
40537;SDS011;27925;41.874;12.526;2024-02-16T02:37:27;23.25;;;18.25;;
40537;SDS011;27925;41.874;12.526;2024-02-16T02:39:53;25.25;;;18.30;;
40537;SDS011;27925;41.874;12.526;2024-02-16T02:42:18;25.75;;;18.15;;
40537;SDS011;27925;41.874;12.526;2024-02-16T02:44:44;26.27;;;18.38;;
40537;SDS011;27925;41.874;12.526;2024-02-16T02:47:15;24.40;;;17.48;;
40537;SDS011;27925;41.874;12.526;2024-02-16T02:49:42;25.48;;;18.98;;
40537;SDS011;27925;41.874;12.526;2024-02-16T02:52:08;23.42;;;18.48;;
40537;SDS011;27925;41.874;12.526;2024-02-16T02:54:34;26.13;;;18.13;;
40537;SDS011;27925;41.874;12.526;2024-02-16T02:57:00;23.45;;;17.48;;
40537;SDS011;27925;41.874;12.526;2024-02-16T02:59:27;23.50;;;17.77;;
40537;SDS011;27925;41.874;12.526;2024-02-16T03:01:53;28.20;;;18.52;;
40537;SDS011;27925;41.874;12.526;2024-02-16T03:04:18;25.45;;;18.85;;
40537;SDS011;27925;41.874;12.526;2024-02-16T03:06:45;23.75;;;18.45;;
40537;SDS011;27925;41.874;12.526;2024-02-16T03:09:11;25.10;;;18.30;;
40537;SDS011;27925;41.874;12.526;2024-02-16T03:11:37;26.00;;;18.77;;
40537;SDS011;27925;41.874;12.526;2024-02-16T03:14:04;25.73;;;19.15;;
40537;SDS011;27925;41.874;12.526;2024-02-16T03:16:30;25.90;;;18.50;;
40537;SDS011;27925;41.874;12.526;2024-02-16T03:18:56;23.95;;;17.65;;
40537;SDS011;27925;41.874;12.526;2024-02-16T03:21:22;22.90;;;16.73;;
40537;SDS011;27925;41.874;12.526;2024-02-16T03:23:48;25.20;;;16.45;;
40537;SDS011;27925;41.874;12.526;2024-02-16T03:26:16;19.45;;;15.80;;
40537;SDS011;27925;41.874;12.526;2024-02-16T03:28:47;25.20;;;15.65;;
40537;SDS011;27925;41.874;12.526;2024-02-16T03:31:19;21.23;;;14.38;;
40537;SDS011;27925;41.874;12.526;2024-02-16T03:33:47;21.83;;;14.68;;
40537;SDS011;27925;41.874;12.526;2024-02-16T03:36:14;21.45;;;13.75;;
40537;SDS011;27925;41.874;12.526;2024-02-16T03:38:41;20.48;;;12.80;;
40537;SDS011;27925;41.874;12.526;2024-02-16T03:41:08;19.35;;;13.48;;
40537;SDS011;27925;41.874;12.526;2024-02-16T03:43:37;18.83;;;13.25;;
40537;SDS011;27925;41.874;12.526;2024-02-16T03:46:03;17.10;;;13.05;;
40537;SDS011;27925;41.874;12.526;2024-02-16T03:48:29;19.38;;;12.75;;
40537;SDS011;27925;41.874;12.526;2024-02-16T03:50:55;19.48;;;12.38;;
40537;SDS011;27925;41.874;12.526;2024-02-16T03:53:21;17.80;;;12.15;;
40537;SDS011;27925;41.874;12.526;2024-02-16T03:55:46;20.15;;;13.07;;
40537;SDS011;27925;41.874;12.526;2024-02-16T03:58:12;18.67;;;12.52;;
40537;SDS011;27925;41.874;12.526;2024-02-16T04:00:38;17.08;;;11.82;;
40537;SDS011;27925;41.874;12.526;2024-02-16T04:03:04;17.23;;;11.77;;
40537;SDS011;27925;41.874;12.526;2024-02-16T04:05:29;16.25;;;12.00;;
40537;SDS011;27925;41.874;12.526;2024-02-16T04:07:57;20.75;;;12.10;;
40537;SDS011;27925;41.874;12.526;2024-02-16T04:10:27;19.00;;;12.60;;
40537;SDS011;27925;41.874;12.526;2024-02-16T04:12:55;17.30;;;12.07;;
40537;SDS011;27925;41.874;12.526;2024-02-16T04:15:21;17.70;;;12.65;;
40537;SDS011;27925;41.874;12.526;2024-02-16T04:17:47;15.85;;;12.00;;
40537;SDS011;27925;41.874;12.526;2024-02-16T04:20:15;16.90;;;12.20;;
40537;SDS011;27925;41.874;12.526;2024-02-16T04:22:41;17.90;;;12.05;;
40537;SDS011;27925;41.874;12.526;2024-02-16T04:25:07;16.02;;;12.07;;
40537;SDS011;27925;41.874;12.526;2024-02-16T04:27:34;18.20;;;12.77;;
40537;SDS011;27925;41.874;12.526;2024-02-16T04:30:00;17.02;;;12.45;;
40537;SDS011;27925;41.874;12.526;2024-02-16T04:32:26;19.00;;;11.93;;
40537;SDS011;27925;41.874;12.526;2024-02-16T04:34:52;19.30;;;13.40;;
40537;SDS011;27925;41.874;12.526;2024-02-16T04:37:18;17.33;;;12.30;;
40537;SDS011;27925;41.874;12.526;2024-02-16T04:39:44;14.45;;;11.40;;
40537;SDS011;27925;41.874;12.526;2024-02-16T04:42:10;19.73;;;12.95;;
40537;SDS011;27925;41.874;12.526;2024-02-16T04:44:36;16.48;;;11.65;;
40537;SDS011;27925;41.874;12.526;2024-02-16T04:47:06;17.58;;;12.38;;
40537;SDS011;27925;41.874;12.526;2024-02-16T04:49:32;17.17;;;12.32;;
40537;SDS011;27925;41.874;12.526;2024-02-16T04:51:57;17.77;;;12.35;;
40537;SDS011;27925;41.874;12.526;2024-02-16T04:54:23;17.52;;;12.40;;
40537;SDS011;27925;41.874;12.526;2024-02-16T04:56:49;19.52;;;12.57;;
40537;SDS011;27925;41.874;12.526;2024-02-16T22:59:56;49.25;;;33.63;;
40537;SDS011;27925;41.874;12.526;2024-02-16T23:02:22;47.92;;;34.83;;
40537;SDS011;27925;41.874;12.526;2024-02-16T23:04:48;51.13;;;35.00;;
40537;SDS011;27925;41.874;12.526;2024-02-16T23:07:14;51.65;;;34.97;;
40537;SDS011;27925;41.874;12.526;2024-02-16T23:09:40;46.75;;;33.38;;
40537;SDS011;27925;41.874;12.526;2024-02-16T23:12:07;43.22;;;30.83;;
40537;SDS011;27925;41.874;12.526;2024-02-16T23:14:34;52.88;;;33.05;;
40537;SDS011;27925;41.874;12.526;2024-02-16T23:17:01;46.78;;;31.80;;
40537;SDS011;27925;41.874;12.526;2024-02-16T23:19:27;46.10;;;31.65;;
40537;SDS011;27925;41.874;12.526;2024-02-16T23:21:52;43.03;;;30.95;;
40537;SDS011;27925;41.874;12.526;2024-02-16T23:24:18;42.58;;;30.50;;
40537;SDS011;27925;41.874;12.526;2024-02-16T23:26:44;43.22;;;30.63;;
40537;SDS011;27925;41.874;12.526;2024-02-16T23:29:11;44.55;;;31.38;;
40537;SDS011;27925;41.874;12.526;2024-02-16T23:31:36;42.30;;;30.73;;
40537;SDS011;27925;41.874;12.526;2024-02-16T23:34:02;45.47;;;30.92;;
40537;SDS011;27925;41.874;12.526;2024-02-16T23:36:28;45.95;;;31.55;;
40537;SDS011;27925;41.874;12.526;2024-02-16T23:38:54;47.15;;;31.27;;
40537;SDS011;27925;41.874;12.526;2024-02-16T23:41:23;48.40;;;31.95;;
40537;SDS011;27925;41.874;12.526;2024-02-16T23:43:49;48.13;;;31.60;;
40537;SDS011;27925;41.874;12.526;2024-02-16T23:46:16;46.60;;;30.88;;
40537;SDS011;27925;41.874;12.526;2024-02-16T23:48:42;44.85;;;32.17;;
40537;SDS011;27925;41.874;12.526;2024-02-16T23:51:08;48.28;;;33.55;;
40537;SDS011;27925;41.874;12.526;2024-02-16T23:53:34;43.67;;;31.52;;
40537;SDS011;27925;41.874;12.526;2024-02-16T23:56:00;44.38;;;32.05;;
40537;SDS011;27925;41.874;12.526;2024-02-16T23:58:26;45.80;;;31.88;;
